createdAt,value
2022-09-30T00:02:35.387Z,7.37
2022-09-30T00:07:39.922Z,7.47
2022-09-30T00:12:42.934Z,6.80
2022-09-30T00:17:46.023Z,6.20
2022-09-30T00:22:50.463Z,6.27
2022-09-30T00:27:53.471Z,6.43
2022-09-30T00:32:56.602Z,6.63
2022-09-30T00:38:01.238Z,6.87
2022-09-30T00:43:04.351Z,6.23
2022-09-30T00:48:11.111Z,5.83
2022-09-30T00:53:19.908Z,6.00
2022-09-30T00:58:29.095Z,6.40
2022-09-30T01:03:35.062Z,5.97
2022-09-30T01:08:41.582Z,5.80
2022-09-30T01:13:48.246Z,5.60
2022-09-30T01:19:05.465Z,5.50
2022-09-30T01:24:42.284Z,6.03
2022-09-30T01:30:12.506Z,5.53
2022-09-30T01:35:24.455Z,6.23
2022-09-30T01:40:41.169Z,6.60
2022-09-30T01:45:50.627Z,7.13
2022-09-30T01:51:01.828Z,6.20
2022-09-30T01:56:13.740Z,6.63
2022-09-30T02:01:22.798Z,6.10
2022-09-30T02:06:32.294Z,6.00
2022-09-30T02:11:37.389Z,5.80
2022-09-30T02:16:43.672Z,5.80
2022-09-30T02:21:57.141Z,7.27
2022-09-30T02:27:02.572Z,6.27
2022-09-30T02:32:13.450Z,5.90
2022-09-30T02:37:22.499Z,5.40
2022-09-30T02:42:28.847Z,5.30
2022-09-30T02:47:44.933Z,5.40
2022-09-30T02:53:02.936Z,4.97
2022-09-30T02:58:13.077Z,4.57
2022-09-30T03:03:21.630Z,5.13
2022-09-30T03:08:27.305Z,5.53
2022-09-30T03:13:57.048Z,4.87
2022-09-30T03:19:14.603Z,4.47
2022-09-30T03:24:36.213Z,4.37
2022-09-30T03:29:48.618Z,4.07
2022-09-30T03:35:04.682Z,4.77
2022-09-30T03:40:17.691Z,4.20
2022-09-30T03:45:30.697Z,4.13
2022-09-30T03:50:36.478Z,4.50
2022-09-30T03:55:54.279Z,4.73
2022-09-30T04:01:00.209Z,4.57
2022-09-30T04:06:03.850Z,4.30
2022-09-30T04:11:08.396Z,4.30
2022-09-30T04:16:11.669Z,4.97
2022-09-30T04:21:18.403Z,4.50
2022-09-30T04:26:23.202Z,4.33
2022-09-30T04:31:27.003Z,4.10
2022-09-30T04:36:33.265Z,4.80
2022-09-30T04:41:38.341Z,4.97
2022-09-30T04:46:44.179Z,7.00
2022-09-30T04:51:47.504Z,6.70
2022-09-30T04:56:52.327Z,8.83
2022-09-30T05:01:55.426Z,9.50
2022-09-30T05:07:01.971Z,12.90
2022-09-30T05:12:06.783Z,13.77
2022-09-30T05:17:10.218Z,13.17
2022-09-30T05:22:14.157Z,12.90
2022-09-30T05:27:18.865Z,13.13
2022-09-30T05:32:22.646Z,11.80
2022-09-30T05:37:25.891Z,11.73
2022-09-30T05:42:32.630Z,12.13
2022-09-30T05:47:35.787Z,10.80
2022-09-30T05:52:38.874Z,10.33
2022-09-30T05:57:43.551Z,11.30
2022-09-30T06:02:46.749Z,11.80
2022-09-30T06:07:50.440Z,12.93
2022-09-30T06:12:54.929Z,13.63
2022-09-30T06:18:00.677Z,13.63
2022-09-30T06:23:04.629Z,12.97
2022-09-30T06:28:08.949Z,13.10
2022-09-30T06:33:12.659Z,14.23
2022-09-30T06:38:17.296Z,11.97
2022-09-30T06:43:22.051Z,12.97
2022-09-30T06:48:36.627Z,13.87
2022-09-30T06:53:41.880Z,14.90
2022-09-30T06:58:46.777Z,13.77
2022-09-30T07:03:54.031Z,15.60
2022-09-30T07:08:57.878Z,15.47
2022-09-30T07:14:04.509Z,15.57
2022-09-30T07:19:10.359Z,15.87
2022-09-30T07:24:15.323Z,15.47
2022-09-30T07:29:19.761Z,15.33
2022-09-30T07:34:22.903Z,17.00
2022-09-30T07:39:26.320Z,13.47
2022-09-30T07:44:31.638Z,14.97
2022-09-30T07:49:34.819Z,13.27
2022-09-30T07:54:42.508Z,13.70
2022-09-30T07:59:48.928Z,14.33
2022-09-30T08:04:52.145Z,13.70
2022-09-30T08:09:55.521Z,13.53
2022-09-30T08:15:00.191Z,11.67
2022-09-30T08:20:03.284Z,13.27
2022-09-30T08:25:07.510Z,12.53
2022-09-30T08:30:13.283Z,11.87
2022-09-30T08:35:16.619Z,12.87
2022-09-30T08:40:22.895Z,12.13
2022-09-30T08:45:37.516Z,11.37
2022-09-30T08:50:53.039Z,10.40
2022-09-30T08:56:02.786Z,8.83
2022-09-30T09:01:18.004Z,8.57
2022-09-30T09:06:37.470Z,8.37
2022-09-30T09:11:54.747Z,7.73
2022-09-30T09:17:15.406Z,6.93
2022-09-30T09:22:23.849Z,6.30
2022-09-30T09:27:37.106Z,6.30
2022-09-30T09:32:43.278Z,6.03
2022-09-30T09:38:15.338Z,6.53
2022-09-30T09:43:27.541Z,3.88
2022-09-30T09:48:36.404Z,4.28
2022-09-30T09:53:45.915Z,4.88
2022-09-30T09:59:10.510Z,5.10
2022-09-30T10:04:19.166Z,4.78
2022-09-30T10:09:31.861Z,3.60
2022-09-30T10:14:36.989Z,3.90
2022-09-30T10:19:49.068Z,3.75
2022-09-30T10:25:09.874Z,2.72
2022-09-30T10:30:12.925Z,2.22
2022-09-30T10:35:23.710Z,2.53
2022-09-30T10:40:32.054Z,3.00
2022-09-30T10:45:41.376Z,2.28
2022-09-30T10:50:51.874Z,2.20
2022-09-30T10:55:56.315Z,1.65
2022-09-30T11:01:08.195Z,2.20
2022-09-30T11:06:16.337Z,2.65
2022-09-30T11:11:23.046Z,2.95
2022-09-30T11:16:33.390Z,2.80
2022-09-30T11:21:43.401Z,2.88
2022-09-30T11:26:59.264Z,2.83
2022-09-30T11:32:15.451Z,2.10
2022-09-30T11:37:29.948Z,2.00
2022-09-30T11:42:41.336Z,2.70
2022-09-30T11:47:59.817Z,2.42
2022-09-30T11:53:19.104Z,2.42
2022-09-30T11:58:40.898Z,3.30
2022-09-30T12:03:51.038Z,3.92
2022-09-30T12:09:00.914Z,3.90
2022-09-30T12:14:11.926Z,3.80
2022-09-30T12:19:23.052Z,4.40
2022-09-30T12:24:36.963Z,3.00
2022-09-30T12:30:01.014Z,2.78
2022-09-30T12:35:24.657Z,2.88
2022-09-30T12:40:45.164Z,2.05
2022-09-30T12:46:05.420Z,2.05
2022-09-30T12:51:09.603Z,1.42
2022-09-30T12:56:16.761Z,1.60
2022-09-30T13:01:24.282Z,1.88
2022-09-30T13:06:29.504Z,1.75
2022-09-30T13:11:45.333Z,1.63
2022-09-30T13:17:20.242Z,1.48
2022-09-30T13:22:57.640Z,2.20
2022-09-30T13:28:32.249Z,1.77
2022-09-30T13:33:44.660Z,2.03
2022-09-30T13:38:48.013Z,2.00
2022-09-30T13:44:03.366Z,2.33
2022-09-30T13:49:13.469Z,1.98
2022-09-30T13:54:26.585Z,2.00
2022-09-30T13:59:49.431Z,2.10
2022-09-30T14:05:23.183Z,1.92
2022-09-30T14:10:58.884Z,2.40
2022-09-30T14:16:33.609Z,2.10
2022-09-30T14:21:40.817Z,2.40
2022-09-30T14:27:04.777Z,2.40
2022-09-30T14:32:19.947Z,2.35
2022-09-30T14:37:28.847Z,2.15
2022-09-30T14:42:36.833Z,2.60
2022-09-30T14:47:46.579Z,2.22
2022-09-30T14:52:57.089Z,1.70
2022-09-30T14:58:23.443Z,2.40
2022-09-30T15:03:29.128Z,1.90
2022-09-30T15:08:32.543Z,2.00
2022-09-30T15:13:36.216Z,2.40
2022-09-30T15:18:47.987Z,2.30
2022-09-30T15:23:53.892Z,2.42
2022-09-30T15:28:56.969Z,3.03
2022-09-30T15:34:13.741Z,2.30
2022-09-30T15:39:23.700Z,2.53
2022-09-30T15:44:39.059Z,2.60
2022-09-30T15:49:50.428Z,2.60
2022-09-30T15:54:53.537Z,2.70
2022-09-30T16:00:02.320Z,2.55
2022-09-30T16:05:09.183Z,3.08
2022-09-30T16:10:22.174Z,2.92
2022-09-30T16:15:25.529Z,2.33
2022-09-30T16:20:30.229Z,2.88
2022-09-30T16:25:34.470Z,2.47
2022-09-30T16:30:42.617Z,2.55
2022-09-30T16:35:48.304Z,2.80
2022-09-30T16:40:51.368Z,3.08
2022-09-30T16:45:54.658Z,2.60
2022-09-30T16:51:06.666Z,2.60
2022-09-30T16:56:16.191Z,2.50
2022-09-30T17:01:21.522Z,2.60
2022-09-30T17:06:29.811Z,2.70
2022-09-30T17:11:36.205Z,3.60
2022-09-30T17:16:39.227Z,4.63
2022-09-30T17:21:43.685Z,3.13
2022-09-30T17:26:46.719Z,3.42
2022-09-30T17:31:50.044Z,5.80
2022-09-30T17:36:55.613Z,4.15
2022-09-30T17:42:16.517Z,4.00
2022-09-30T17:47:21.458Z,3.60
2022-09-30T17:52:33.111Z,3.15
2022-09-30T17:57:40.013Z,3.17
2022-09-30T18:02:44.817Z,4.00
2022-09-30T18:07:49.293Z,3.53
2022-09-30T18:12:55.141Z,3.60
2022-09-30T18:18:00.390Z,3.80
2022-09-30T18:23:05.018Z,4.27
2022-09-30T18:28:08.945Z,3.97
2022-09-30T18:33:11.952Z,3.53
2022-09-30T18:38:16.392Z,3.70
2022-09-30T18:43:20.567Z,3.30
2022-09-30T18:48:27.353Z,3.60
2022-09-30T18:53:34.778Z,3.90
2022-09-30T18:58:39.408Z,3.57
2022-09-30T19:03:42.676Z,3.23
2022-09-30T19:08:47.159Z,3.10
2022-09-30T19:13:53.163Z,3.23
2022-09-30T19:18:57.629Z,3.10
2022-09-30T19:24:06.620Z,2.90
2022-09-30T19:29:12.003Z,3.10
2022-09-30T19:34:26.114Z,2.57
2022-09-30T19:39:45.584Z,3.03
2022-09-30T19:44:49.489Z,2.50
2022-09-30T19:49:52.572Z,2.57
2022-09-30T19:55:08.005Z,2.60
2022-09-30T20:00:16.572Z,2.50
2022-09-30T20:05:19.594Z,2.70
2022-09-30T20:10:24.102Z,2.37
2022-09-30T20:15:46.374Z,2.50
2022-09-30T20:20:50.042Z,2.57
2022-09-30T20:25:55.260Z,2.30
2022-09-30T20:30:58.306Z,2.40
2022-09-30T20:36:01.686Z,2.30
2022-09-30T20:41:07.836Z,2.50
2022-09-30T20:46:11.828Z,2.57
2022-09-30T20:51:17.575Z,2.43
2022-09-30T20:56:23.463Z,2.60
2022-09-30T21:01:26.531Z,2.43
2022-09-30T21:06:31.062Z,2.27
2022-09-30T21:11:35.586Z,2.57
2022-09-30T21:16:38.942Z,2.43
2022-09-30T21:21:42.028Z,2.30
2022-09-30T21:26:46.554Z,2.70
2022-09-30T21:31:49.788Z,2.70
2022-09-30T21:36:52.857Z,2.70
2022-09-30T21:41:57.629Z,2.67
2022-09-30T21:47:03.499Z,3.30
2022-09-30T21:52:09.273Z,2.80
2022-09-30T21:57:13.838Z,3.07
2022-09-30T22:02:17.040Z,3.10
2022-09-30T22:07:21.846Z,3.50
2022-09-30T22:12:26.359Z,3.73
2022-09-30T22:17:31.313Z,3.67
2022-09-30T22:22:34.697Z,3.57
2022-09-30T22:27:39.039Z,3.97
2022-09-30T22:32:42.074Z,4.40
2022-09-30T22:37:58.949Z,4.20
2022-09-30T22:43:33.537Z,4.37
2022-09-30T22:48:37.020Z,4.37
2022-09-30T22:53:39.979Z,4.67
2022-09-30T22:58:46.804Z,4.23
2022-09-30T23:03:54.139Z,4.30
2022-09-30T23:08:58.487Z,4.07
2022-09-30T23:14:03.961Z,3.77
2022-09-30T23:19:07.071Z,4.00
2022-09-30T23:24:10.780Z,3.23
2022-09-30T23:29:16.051Z,3.60
2022-09-30T23:34:19.245Z,3.30
2022-09-30T23:39:22.407Z,3.70
2022-09-30T23:44:28.646Z,3.57
2022-09-30T23:49:35.856Z,3.90
2022-09-30T23:54:39.002Z,3.90
2022-09-30T23:59:43.320Z,4.03
